Time;durP1;ratioP1;P1;durP2;ratioP2;P2;SDS_P1;SDS_P2;PMS_P1;PMS_P2;Temp;Humidity;BMP_temperature;BMP_pressure;BME280_temperature;BME280_humidity;BME280_pressure;Samples;Min_cycle;Max_cycle;Signal;HPM_P1;HPM_P2
2023/03/01 00:03:24;;;;;;;19.57;7.53;;;;;;;-1.01;79.75;100868.72;12167940;19;20007;-78
2023/03/01 00:07:26;;;;;;;16.08;7.28;;;;;;;-1.03;78.67;100868.00;12154364;19;20030;-79
2023/03/01 00:11:30;;;;;;;16.40;6.85;;;;;;;-1.08;79.03;100874.84;12165825;19;20010;-80
2023/03/01 00:15:32;;;;;;;15.38;6.93;;;;;;;-1.09;79.00;100863.19;12167034;19;20039;-79
2023/03/01 00:19:34;;;;;;;17.75;7.18;;;;;;;-1.09;78.82;100878.56;12142726;19;20402;-78
2023/03/01 00:23:36;;;;;;;15.13;7.00;;;;;;;-1.08;79.22;100864.88;12167633;19;19999;-78
2023/03/01 00:27:37;;;;;;;21.17;7.32;;;;;;;-1.05;79.45;100871.84;12169749;19;20059;-79
2023/03/01 00:31:39;;;;;;;16.40;7.30;;;;;;;-1.04;78.89;100871.72;12148189;19;20014;-79
2023/03/01 00:35:41;;;;;;;12.93;7.00;;;;;;;-1.07;79.43;100865.72;12166872;19;20013;-79
2023/03/01 00:39:43;;;;;;;15.20;7.20;;;;;;;-1.09;79.37;100857.78;12151341;19;20031;-79
2023/03/01 00:43:45;;;;;;;14.10;6.53;;;;;;;-1.10;79.18;100850.66;12170025;19;20002;-79
2023/03/01 00:47:48;;;;;;;15.57;7.30;;;;;;;-1.10;79.99;100847.97;12176780;19;20006;-78
2023/03/01 00:51:50;;;;;;;16.25;7.32;;;;;;;-1.03;80.28;100842.81;12159693;19;20010;-79
2023/03/01 00:55:51;;;;;;;12.65;6.90;;;;;;;-1.00;79.38;100831.69;12209098;19;20003;-80
2023/03/01 00:59:53;;;;;;;17.35;8.88;;;;;;;-0.97;79.57;100834.09;12215011;19;20010;-80
2023/03/01 01:03:57;;;;;;;17.23;7.70;;;;;;;-0.96;79.53;100831.22;12200492;19;20014;-80
2023/03/01 01:07:59;;;;;;;16.67;7.22;;;;;;;-0.93;80.20;100822.78;12213642;19;20019;-79
2023/03/01 01:12:00;;;;;;;17.77;8.07;;;;;;;-0.93;80.28;100808.41;12181334;19;21116;-80
2023/03/01 01:16:02;;;;;;;16.10;7.82;;;;;;;-0.86;79.94;100800.53;12159891;19;20006;-80
2023/03/01 01:20:04;;;;;;;17.83;7.90;;;;;;;-0.89;80.19;100788.19;12182009;19;20023;-79
2023/03/01 01:24:06;;;;;;;16.80;7.35;;;;;;;-0.86;81.26;100784.31;12178255;19;20011;-78
2023/03/01 01:28:08;;;;;;;19.93;8.07;;;;;;;-0.90;81.17;100781.06;12159806;19;20110;-79
2023/03/01 01:32:09;;;;;;;18.80;7.72;;;;;;;-0.88;80.94;100780.94;12180340;19;20013;-79
2023/03/01 01:36:11;;;;;;;14.60;7.20;;;;;;;-0.88;82.18;100784.47;12181992;19;20003;-79
2023/03/01 01:40:13;;;;;;;20.80;8.88;;;;;;;-0.83;82.15;100779.47;12160724;19;20003;-79
2023/03/01 01:44:23;;;;;;;14.95;7.85;;;;;;;-0.81;81.81;100768.47;12183876;19;20027;-79
2023/03/01 01:48:40;;;;;;;13.15;7.05;;;;;;;-0.78;81.88;100771.72;12178064;19;20018;-80
2023/03/01 01:52:42;;;;;;;17.52;7.88;;;;;;;-0.81;82.74;100760.34;12151846;19;20010;-79
2023/03/01 01:56:48;;;;;;;16.37;7.50;;;;;;;-0.78;82.55;100768.16;12177308;19;20046;-79
2023/03/01 02:00:50;;;;;;;17.50;7.75;;;;;;;-0.75;82.63;100757.03;12150796;19;20014;-79
2023/03/01 02:05:03;;;;;;;19.10;8.13;;;;;;;-0.71;83.09;100761.16;12178705;19;20654;-79
2023/03/01 02:09:10;;;;;;;18.10;8.48;;;;;;;-0.77;84.57;100761.78;12182330;19;20024;-79
2023/03/01 02:13:12;;;;;;;16.90;8.32;;;;;;;-0.78;83.80;100773.56;12162857;19;20002;-79
2023/03/01 02:17:16;;;;;;;15.93;7.38;;;;;;;-0.88;84.44;100762.81;12184989;19;20078;-79
2023/03/01 02:21:30;;;;;;;18.45;8.00;;;;;;;-0.94;84.62;100769.69;12181976;19;20010;-79
2023/03/01 02:25:55;;;;;;;15.02;7.22;;;;;;;-0.93;84.32;100770.53;12157039;19;20002;-79
2023/03/01 02:29:57;;;;;;;15.40;7.75;;;;;;;-0.96;84.54;100768.13;12177528;19;20007;-79
2023/03/01 02:33:59;;;;;;;18.77;8.05;;;;;;;-0.95;84.92;100753.63;12153631;19;20410;-79
2023/03/01 02:38:06;;;;;;;17.30;7.60;;;;;;;-0.98;85.15;100753.94;12175528;19;20021;-79
2023/03/01 02:42:12;;;;;;;19.33;8.15;;;;;;;-0.98;84.75;100741.25;12177615;19;20023;-80
2023/03/01 02:46:25;;;;;;;15.40;7.57;;;;;;;-0.95;84.01;100746.34;12154528;19;20413;-79
2023/03/01 02:50:43;;;;;;;;;;;;;;;-0.97;84.87;100742.94;12177815;19;20032;-79
2023/03/01 02:54:59;;;;;;;17.17;7.10;;;;;;;-0.95;84.68;100734.69;12175351;19;19915;-79
2023/03/01 02:59:02;;;;;;;16.23;8.30;;;;;;;-0.96;84.26;100722.16;12192643;19;20378;-79
2023/03/01 03:03:04;;;;;;;;;;;;;;;-1.01;84.37;100728.03;12198666;19;20022;-79
2023/03/01 03:07:05;;;;;;;16.13;7.65;;;;;;;-1.03;84.99;100715.66;12178556;19;19930;-79
2023/03/01 03:11:07;;;;;;;20.52;8.60;;;;;;;-1.02;85.40;100701.97;12194090;19;21428;-79
2023/03/01 03:15:12;;;;;;;17.15;8.13;;;;;;;-1.03;85.68;100708.38;12200095;19;20034;-79
2023/03/01 03:19:15;;;;;;;16.35;8.10;;;;;;;-1.03;85.67;100694.88;12177658;19;20484;-78
2023/03/01 03:23:16;;;;;;;18.20;8.85;;;;;;;-1.05;86.13;100688.75;12198777;19;20033;-79
2023/03/01 03:27:18;;;;;;;15.35;5.72;;;;;;;-1.03;86.19;100684.03;12202651;19;20034;-79
2023/03/01 03:31:20;;;;;;;15.95;7.13;;;;;;;-1.01;86.32;100686.56;12228074;19;20080;-78
2023/03/01 03:35:29;;;;;;;18.10;8.55;;;;;;;-1.02;86.71;100684.88;12225425;19;20010;-80
2023/03/01 03:39:34;;;;;;;18.13;7.88;;;;;;;-1.05;86.55;100679.78;12204001;19;20003;-80
2023/03/01 03:43:38;;;;;;;17.83;8.68;;;;;;;-1.08;86.94;100678.22;12177934;19;20010;-80
2023/03/01 03:47:39;;;;;;;19.23;8.40;;;;;;;-1.04;86.71;100676.94;12201138;19;20002;-79
2023/03/01 03:51:41;;;;;;;14.82;7.80;;;;;;;-1.00;86.65;100672.06;12179547;19;20019;-80
2023/03/01 03:55:44;;;;;;;20.63;9.40;;;;;;;-0.99;86.62;100668.34;12196859;19;20006;-79
2023/03/01 03:59:45;;;;;;;16.33;8.18;;;;;;;-0.95;85.84;100667.91;12195514;19;20014;-79
2023/03/01 04:03:47;;;;;;;19.45;9.52;;;;;;;-0.92;85.76;100670.28;12171509;19;20455;-78
2023/03/01 04:07:49;;;;;;;20.70;9.38;;;;;;;-0.89;85.96;100671.84;12194306;19;20733;-78
2023/03/01 04:11:50;;;;;;;19.98;8.95;;;;;;;-0.86;86.03;100667.94;12195252;19;20003;-78
2023/03/01 04:15:53;;;;;;;19.05;8.82;;;;;;;-0.81;86.18;100665.63;12174298;19;20007;-77
2023/03/01 04:19:54;;;;;;;17.58;8.75;;;;;;;-0.80;85.23;100668.22;12194984;19;19998;-78
2023/03/01 04:23:56;;;;;;;19.08;9.05;;;;;;;-0.81;86.03;100669.19;12198181;19;20002;-78
2023/03/01 04:27:58;;;;;;;17.33;8.70;;;;;;;-0.73;85.89;100679.25;12177242;19;20066;-78
2023/03/01 04:31:59;;;;;;;23.83;8.93;;;;;;;-0.73;86.00;100666.56;12197471;19;20118;-79
2023/03/01 04:36:05;;;;;;;15.40;8.23;;;;;;;-0.67;85.00;100667.81;12212707;19;20398;-79
2023/03/01 04:40:16;;;;;;;19.70;8.38;;;;;;;-0.69;85.88;100669.81;12189837;19;20006;-79
2023/03/01 04:44:19;;;;;;;17.05;8.50;;;;;;;-0.66;85.38;100663.22;12213392;19;20033;-79
2023/03/01 04:48:22;;;;;;;22.38;9.13;;;;;;;-0.72;86.11;100665.56;12214629;19;20003;-79
2023/03/01 04:52:24;;;;;;;21.63;9.23;;;;;;;-0.66;85.38;100666.78;12196871;19;20398;-79
2023/03/01 04:56:26;;;;;;;18.80;8.75;;;;;;;-0.65;84.97;100668.50;12256475;19;20010;-79
2023/03/01 05:00:28;;;;;;;19.80;9.07;;;;;;;-0.65;85.19;100668.50;12276121;19;20649;-78
2023/03/01 05:04:30;;;;;;;22.30;9.50;;;;;;;-0.69;85.22;100662.53;12224823;19;20571;-79
2023/03/01 05:08:34;;;;;;;19.50;9.38;;;;;;;-0.66;84.88;100661.38;12225385;19;20002;-79
2023/03/01 05:12:37;;;;;;;20.42;9.82;;;;;;;-0.64;84.52;100662.06;12213063;19;20074;-78
2023/03/01 05:16:38;;;;;;;19.10;8.95;;;;;;;-0.63;84.16;100652.94;12190227;19;20014;-79
2023/03/01 05:20:40;;;;;;;21.40;9.45;;;;;;;-0.60;84.63;100655.34;12207051;19;20676;-79
2023/03/01 05:24:42;;;;;;;21.65;9.07;;;;;;;-0.60;84.11;100649.91;12186125;19;20047;-80
2023/03/01 05:28:44;;;;;;;20.15;8.98;;;;;;;-0.57;84.67;100646.91;12208759;19;20007;-80
2023/03/01 05:32:48;;;;;;;20.73;9.43;;;;;;;-0.54;84.61;100643.88;12207381;19;20011;-79
2023/03/01 05:36:52;;;;;;;20.08;9.52;;;;;;;-0.54;84.20;100646.56;12182816;19;20658;-79
2023/03/01 05:40:54;;;;;;;19.92;8.82;;;;;;;-0.55;84.13;100644.88;12204241;19;20082;-79
2023/03/01 05:44:56;;;;;;;17.65;8.77;;;;;;;-0.53;84.74;100644.75;12202808;19;20054;-79
2023/03/01 05:48:58;;;;;;;17.95;8.57;;;;;;;-0.52;84.89;100644.56;12186891;19;20006;-79
2023/03/01 05:53:05;;;;;;;21.52;9.23;;;;;;;-0.52;84.91;100641.88;12204913;19;20014;-79
2023/03/01 05:57:07;;;;;;;16.40;8.57;;;;;;;-0.51;85.04;100643.56;12205230;19;20016;-79
2023/03/01 06:01:12;;;;;;;17.88;9.13;;;;;;;-0.50;84.85;100647.97;12179305;19;21612;-79
2023/03/01 06:05:14;;;;;;;20.00;9.85;;;;;;;-0.52;85.04;100639.16;12203548;19;20030;-81
2023/03/01 06:09:16;;;;;;;20.08;9.65;;;;;;;-0.53;84.95;100648.31;12200291;19;20066;-81
2023/03/01 06:13:18;;;;;;;18.63;9.18;;;;;;;-0.53;85.07;100647.47;12184669;19;20010;-80
2023/03/01 06:17:19;;;;;;;20.58;10.63;;;;;;;-0.52;85.47;100654.56;12203902;19;20006;-81
2023/03/01 06:21:21;;;;;;;25.98;9.77;;;;;;;-0.55;85.48;100647.59;12205546;19;20006;-82
2023/03/01 06:25:25;;;;;;;24.45;9.52;;;;;;;-0.54;85.59;100645.72;12182645;19;20026;-81
2023/03/01 06:29:28;;;;;;;20.90;9.15;;;;;;;-0.51;85.90;100646.25;12198864;19;20346;-81
2023/03/01 06:33:30;;;;;;;25.52;9.48;;;;;;;-0.48;86.02;100640.56;12197600;19;20006;-80
2023/03/01 06:37:32;;;;;;;19.35;8.50;;;;;;;-0.43;86.13;100639.22;12184626;19;20027;-81
2023/03/01 06:41:34;;;;;;;21.48;8.80;;;;;;;-0.40;86.41;100642.47;12200263;19;20018;-81
2023/03/01 06:45:37;;;;;;;21.77;9.80;;;;;;;-0.35;86.31;100642.00;12203550;19;20002;-81
2023/03/01 06:49:38;;;;;;;24.85;9.57;;;;;;;-0.32;86.50;100644.38;12181503;19;20457;-81
2023/03/01 06:53:40;;;;;;;17.92;9.10;;;;;;;-0.28;86.40;100645.75;12200359;19;20015;-81
2023/03/01 06:57:44;;;;;;;18.42;8.80;;;;;;;-0.24;86.43;100642.59;12181707;19;20013;-81
2023/03/01 07:01:46;;;;;;;17.95;8.45;;;;;;;-0.16;86.01;100641.78;12205002;19;20059;-81
2023/03/01 07:05:51;;;;;;;21.00;8.75;;;;;;;-0.06;85.85;100637.09;12203484;19;20368;-80
2023/03/01 07:09:54;;;;;;;22.92;8.82;;;;;;;-0.02;86.15;100634.91;12180646;19;20022;-81
2023/03/01 07:13:56;;;;;;;24.77;11.15;;;;;;;0.09;85.19;100639.19;12204806;19;20086;-80
2023/03/01 07:17:58;;;;;;;;;;;;;;;0.14;83.98;100631.44;12204403;19;20010;-81
2023/03/01 07:22:00;;;;;;;21.52;9.88;;;;;;;0.29;83.08;100627.09;12179172;19;19936;-81
2023/03/01 07:26:04;;;;;;;16.88;9.02;;;;;;;0.49;82.52;100626.84;12198246;19;20007;-80
2023/03/01 07:30:07;;;;;;;22.27;10.53;;;;;;;0.55;81.03;100626.19;12188282;19;20034;-81
2023/03/01 07:34:15;;;;;;;21.42;10.27;;;;;;;0.70;80.54;100627.22;12171656;19;20001;-80
2023/03/01 07:38:17;;;;;;;20.70;9.30;;;;;;;0.87;80.25;100623.53;12174870;19;20483;-80
2023/03/01 07:42:20;;;;;;;19.23;9.20;;;;;;;0.97;79.15;100626.09;12193574;19;20479;-81
2023/03/01 07:46:22;;;;;;;14.27;7.10;;;;;;;1.09;78.43;100615.75;12173910;19;20053;-80
2023/03/01 07:50:24;;;;;;;17.63;8.80;;;;;;;1.18;77.47;100606.59;12199588;19;20042;-81
2023/03/01 07:54:27;;;;;;;18.50;9.07;;;;;;;1.40;77.07;100607.81;12197796;19;20021;-80
2023/03/01 07:58:29;;;;;;;14.90;8.63;;;;;;;1.63;76.37;100607.91;12177997;19;20018;-80
2023/03/01 08:02:31;;;;;;;21.83;9.20;;;;;;;1.78;74.07;100598.03;12214189;19;20002;-80
2023/03/01 08:06:35;;;;;;;14.43;6.57;;;;;;;1.98;74.04;100603.09;12252520;19;19999;-80
2023/03/01 08:10:37;;;;;;;16.90;8.82;;;;;;;2.22;73.64;100604.88;12223752;19;20039;-81
2023/03/01 08:14:39;;;;;;;18.55;9.18;;;;;;;2.38;72.47;100604.81;12207515;19;20677;-81
2023/03/01 08:18:42;;;;;;;21.83;9.52;;;;;;;2.52;71.75;100600.47;12189034;19;20006;-81
2023/03/01 08:22:45;;;;;;;17.70;9.30;;;;;;;2.63;69.20;100596.53;12200217;19;20006;-81
2023/03/01 08:26:46;;;;;;;20.88;9.52;;;;;;;2.85;70.21;100584.81;12201044;19;20014;-81
2023/03/01 08:30:48;;;;;;;19.00;9.57;;;;;;;2.87;67.80;100588.19;12178165;19;20468;-82
2023/03/01 08:34:50;;;;;;;18.13;9.17;;;;;;;2.86;65.63;100585.69;12199179;19;20011;-80
2023/03/01 08:38:54;;;;;;;19.13;9.18;;;;;;;3.08;66.81;100586.69;12200596;19;20066;-80
2023/03/01 08:42:57;;;;;;;18.02;9.05;;;;;;;3.37;66.62;100583.22;12176728;19;20035;-81
2023/03/01 08:46:59;;;;;;;17.27;9.07;;;;;;;3.62;65.28;100584.66;12199190;19;20091;-81
2023/03/01 08:51:08;;;;;;;18.37;9.07;;;;;;;3.68;63.40;100574.91;12197430;19;20019;-80
2023/03/01 08:55:10;;;;;;;17.73;8.90;;;;;;;3.81;63.42;100571.53;12171759;19;20075;-80
2023/03/01 08:59:13;;;;;;;17.08;9.30;;;;;;;3.90;62.96;100564.97;12194351;19;20018;-80
2023/03/01 09:03:15;;;;;;;20.48;9.90;;;;;;;4.10;62.70;100552.47;12194152;19;20070;-81
2023/03/01 09:07:16;;;;;;;18.63;9.02;;;;;;;4.20;60.52;100562.22;12174789;19;20026;-80
2023/03/01 09:11:21;;;;;;;17.35;8.98;;;;;;;4.16;60.49;100548.09;12192981;19;20485;-81
2023/03/01 09:15:24;;;;;;;17.63;9.43;;;;;;;4.31;60.38;100548.94;12193369;19;20010;-81
2023/03/01 09:19:25;;;;;;;20.52;9.50;;;;;;;4.52;59.67;100550.88;12176010;19;20043;-80
2023/03/01 09:23:27;;;;;;;21.20;9.47;;;;;;;4.65;59.62;100543.88;12204273;19;20027;-81
2023/03/01 09:27:29;;;;;;;19.52;8.98;;;;;;;4.85;59.08;100544.06;12209251;19;20700;-81
2023/03/01 09:31:31;;;;;;;18.20;10.70;;;;;;;4.95;57.59;100533.66;12185918;19;20030;-81
2023/03/01 09:35:34;;;;;;;22.20;10.73;;;;;;;5.03;57.78;100525.34;12206459;19;20361;-81
2023/03/01 09:39:37;;;;;;;20.77;10.93;;;;;;;5.09;57.91;100529.19;12232597;19;20013;-81
2023/03/01 09:43:42;;;;;;;17.92;9.60;;;;;;;5.29;57.78;100523.88;12194439;19;20030;-81
2023/03/01 09:47:42;;;;;;;20.40;10.35;;;;;;;5.43;56.80;100526.50;12214141;19;20006;-82
2023/03/01 09:51:55;;;;;;;17.97;9.73;;;;;;;5.54;55.64;100510.63;12190963;19;20042;-81
2023/03/01 09:56:12;;;;;;;18.85;11.05;;;;;;;5.56;54.86;100517.59;12211752;19;20018;-81
2023/03/01 10:00:36;;;;;;;17.80;9.50;;;;;;;5.73;53.70;100504.41;12213983;19;20031;-81
2023/03/01 10:04:47;;;;;;;20.60;10.80;;;;;;;5.94;53.84;100507.09;12193711;19;20055;-82
2023/03/01 10:08:56;;;;;;;22.00;10.85;;;;;;;6.13;53.90;100510.16;12212798;19;20076;-81
2023/03/01 10:13:03;;;;;;;19.65;11.10;;;;;;;6.20;51.89;100502.78;12199248;19;20043;-81
2023/03/01 10:17:11;;;;;;;22.63;11.50;;;;;;;6.33;51.12;100499.25;12207931;19;20019;-80
2023/03/01 10:21:18;;;;;;;22.13;11.55;;;;;;;6.41;49.81;100500.97;12206052;19;20002;-82
2023/03/01 10:25:51;;;;;;;21.58;11.05;;;;;;;6.53;50.47;100500.16;12192583;19;20358;-80
2023/03/01 10:30:10;;;;;;;22.17;11.07;;;;;;;6.74;49.59;100490.09;12214420;19;20014;-81
2023/03/01 10:34:18;;;;;;;23.10;11.57;;;;;;;6.90;49.56;100486.09;12243130;19;20023;-80
2023/03/01 10:38:20;;;;;;;24.02;12.63;;;;;;;6.99;49.89;100476.63;12244675;19;20022;-81
2023/03/01 10:42:27;;;;;;;22.17;11.77;;;;;;;6.96;48.03;100474.31;12202132;19;20369;-81
2023/03/01 10:46:34;;;;;;;19.52;10.93;;;;;;;6.91;47.05;100471.38;12183374;19;20019;-82
2023/03/01 10:50:39;;;;;;;23.73;10.88;;;;;;;6.85;47.29;100460.19;12204031;19;20003;-82
2023/03/01 10:54:52;;;;;;;21.17;11.45;;;;;;;6.91;48.24;100464.00;12180652;19;20019;-80
2023/03/01 10:59:05;;;;;;;19.45;10.60;;;;;;;7.02;47.38;100452.41;12204224;19;20010;-80
2023/03/01 11:03:12;;;;;;;21.38;10.93;;;;;;;7.17;46.82;100457.69;12246314;19;20010;-79
2023/03/01 11:07:14;;;;;;;23.10;12.13;;;;;;;7.33;46.93;100444.59;12226826;19;20003;-80
2023/03/01 11:11:18;;;;;;;23.08;12.10;;;;;;;7.57;46.91;100438.41;12248286;19;20007;-79
2023/03/01 11:15:27;;;;;;;20.50;10.80;;;;;;;7.79;45.75;100435.38;12250277;19;20017;-79
2023/03/01 11:19:32;;;;;;;21.77;11.48;;;;;;;7.98;45.43;100426.25;12225955;19;20006;-79
2023/03/01 11:23:39;;;;;;;16.73;10.32;;;;;;;8.12;45.41;100419.63;12211707;19;20010;-80
2023/03/01 11:27:44;;;;;;;19.42;10.70;;;;;;;8.29;43.26;100408.97;12211675;19;20014;-78
2023/03/01 11:31:47;;;;;;;19.45;10.45;;;;;;;8.34;43.06;100397.34;12224232;19;20013;-80
2023/03/01 11:36:20;;;;;;;17.77;10.40;;;;;;;8.58;43.96;100401.22;12213049;19;20011;-81
2023/03/01 11:40:27;;;;;;;;;;;;;;;8.49;41.94;100389.66;12179840;19;20019;-80
2023/03/01 11:44:33;;;;;;;14.80;8.80;;;;;;;8.66;43.04;100396.28;12193886;19;20333;-80
2023/03/01 11:48:43;;;;;;;14.18;8.38;;;;;;;9.01;43.10;100382.06;12203183;19;20007;-80
2023/03/01 11:53:06;;;;;;;17.77;9.77;;;;;;;9.20;42.27;100382.09;12175383;19;20460;-81
2023/03/01 11:57:51;;;;;;;16.92;9.13;;;;;;;9.40;40.55;100379.97;12198688;19;20026;-80
2023/03/01 12:02:23;;;;;;;19.52;9.82;;;;;;;9.90;39.93;100385.28;12180018;19;20024;-80
2023/03/01 12:06:50;;;;;;;18.42;9.43;;;;;;;10.67;39.85;100370.88;12199817;19;20014;-81
2023/03/01 12:11:17;;;;;;;19.38;9.75;;;;;;;11.38;38.75;100372.56;12181068;19;20095;-80
2023/03/01 12:15:43;;;;;;;14.20;9.30;;;;;;;11.94;37.74;100356.41;12199142;19;20026;-82
2023/03/01 12:20:08;;;;;;;14.93;9.52;;;;;;;12.57;36.02;100343.47;12179132;19;20085;-81
2023/03/01 12:24:49;;;;;;;16.42;9.35;;;;;;;12.83;35.55;100321.78;12198090;19;20032;-81
2023/03/01 12:29:13;;;;;;;14.65;9.23;;;;;;;13.19;35.56;100317.63;12176356;19;20010;-81
2023/03/01 12:33:26;;;;;;;14.45;8.48;;;;;;;13.57;34.56;100291.88;12198403;19;20070;-80
2023/03/01 12:37:53;;;;;;;13.98;9.32;;;;;;;14.29;34.25;100285.16;12178294;19;20034;-81
2023/03/01 12:42:30;;;;;;;15.63;9.02;;;;;;;14.46;32.46;100278.69;12193803;19;20114;-81
2023/03/01 12:46:32;;;;;;;18.17;9.60;;;;;;;13.90;32.03;100278.97;12169179;19;20026;-81
2023/03/01 12:50:42;;;;;;;15.95;9.25;;;;;;;13.56;32.05;100267.19;12214151;19;20003;-80
2023/03/01 12:54:45;;;;;;;16.02;9.32;;;;;;;14.09;32.44;100265.56;12233422;19;20021;-80
2023/03/01 12:58:57;;;;;;;15.20;8.52;;;;;;;14.06;31.33;100255.84;12217096;19;20027;-82
2023/03/01 13:03:22;;;;;;;15.57;9.53;;;;;;;14.46;31.32;100245.41;12204743;19;21286;-83
2023/03/01 13:07:34;;;;;;;14.85;9.25;;;;;;;14.56;31.32;100243.56;12181562;19;20198;-81
2023/03/01 13:11:42;;;;;;;13.05;8.52;;;;;;;14.98;31.69;100245.50;12198807;19;20042;-81
2023/03/01 13:15:47;;;;;;;10.88;7.65;;;;;;;15.52;30.63;100238.81;12179583;19;20018;-82
2023/03/01 13:19:57;;;;;;;14.85;8.55;;;;;;;15.11;29.50;100230.34;12198497;19;20097;-81
2023/03/01 13:24:00;;;;;;;14.90;8.35;;;;;;;14.30;29.51;100227.78;12199010;19;20031;-81
2023/03/01 13:28:41;;;;;;;12.67;8.37;;;;;;;13.63;31.15;100224.38;12185798;19;20014;-80
2023/03/01 13:32:44;;;;;;;13.93;8.68;;;;;;;12.53;32.14;100221.50;12207965;19;20085;-80
2023/03/01 13:36:47;;;;;;;;;;;;;;;12.10;32.41;100219.41;12186419;19;20013;-79
2023/03/01 13:40:50;;;;;;;16.42;7.82;;;;;;;11.99;33.18;100215.66;12207402;19;19971;-80
2023/03/01 13:44:52;;;;;;;21.80;9.25;;;;;;;11.70;33.41;100209.28;12201762;19;20010;-82
2023/03/01 13:48:56;;;;;;;17.27;9.17;;;;;;;11.41;33.62;100219.47;12187557;19;20028;-80
2023/03/01 13:53:01;;;;;;;13.52;7.70;;;;;;;11.24;34.31;100207.53;12204669;19;20034;-82
2023/03/01 13:57:03;;;;;;;14.80;7.80;;;;;;;10.81;34.73;100206.09;12210849;19;20025;-80
2023/03/01 14:01:20;;;;;;;12.27;7.68;;;;;;;10.49;35.13;100200.94;12181184;19;20007;-80
2023/03/01 14:05:21;;;;;;;13.30;7.53;;;;;;;10.13;35.24;100197.31;12202564;19;20507;-81
2023/03/01 14:09:31;;;;;;;12.25;7.15;;;;;;;9.81;35.89;100188.50;12203712;19;20047;-78
2023/03/01 14:13:45;;;;;;;14.60;7.70;;;;;;;9.75;36.21;100183.94;12180166;19;20006;-81
2023/03/01 14:18:06;;;;;;;13.50;7.07;;;;;;;9.77;36.48;100190.06;12205873;19;20368;-80
2023/03/01 14:22:16;;;;;;;15.63;6.43;;;;;;;9.86;36.37;100180.38;12201418;19;20044;-83
2023/03/01 14:26:22;;;;;;;9.95;5.97;;;;;;;9.94;36.68;100184.72;12212870;19;20046;-80
2023/03/01 14:30:33;;;;;;;15.45;7.55;;;;;;;9.86;36.94;100176.81;12207291;19;20030;-81
2023/03/01 14:34:43;;;;;;;12.20;6.82;;;;;;;9.78;36.69;100161.44;12185039;19;20039;-80
2023/03/01 14:38:46;;;;;;;12.25;6.93;;;;;;;9.94;36.66;100171.78;12222229;19;20069;-81
2023/03/01 14:42:49;;;;;;;11.68;5.97;;;;;;;10.08;36.69;100160.53;12236845;19;20001;-81
2023/03/01 14:46:54;;;;;;;12.40;7.17;;;;;;;9.95;36.52;100162.44;12250659;19;20002;-80
2023/03/01 14:50:57;;;;;;;12.57;6.55;;;;;;;9.84;36.90;100166.00;12257615;19;20514;-78
2023/03/01 14:54:59;;;;;;;12.90;7.30;;;;;;;10.04;37.24;100162.94;12235344;19;20004;-80
2023/03/01 14:59:01;;;;;;;12.65;6.95;;;;;;;10.06;36.98;100152.53;12257526;19;20028;-79
2023/03/01 15:03:12;;;;;;;12.40;6.63;;;;;;;9.88;37.29;100160.91;12253757;19;20037;-78
2023/03/01 15:07:16;;;;;;;17.35;7.63;;;;;;;9.87;37.18;100160.03;12234342;19;19999;-80
2023/03/01 15:11:29;;;;;;;13.00;7.13;;;;;;;9.97;37.75;100160.31;12237752;19;20009;-80
2023/03/01 15:15:34;;;;;;;15.50;8.13;;;;;;;10.30;37.75;100152.59;12214644;19;20015;-80
2023/03/01 15:19:35;;;;;;;16.85;8.25;;;;;;;10.49;37.16;100157.69;12193903;19;20046;-80
2023/03/01 15:23:39;;;;;;;17.65;7.60;;;;;;;10.81;37.26;100156.47;12216059;19;20002;-81
2023/03/01 15:27:46;;;;;;;11.60;7.03;;;;;;;10.65;36.49;100166.34;12200341;19;20035;-78
2023/03/01 15:32:05;;;;;;;14.95;8.02;;;;;;;10.37;37.12;100173.41;12209033;19;20011;-79
2023/03/01 15:36:30;;;;;;;14.82;7.20;;;;;;;10.04;37.62;100173.94;12204498;19;20047;-82
2023/03/01 15:40:33;;;;;;;15.45;7.68;;;;;;;10.00;38.02;100183.78;12185243;19;20003;-82
2023/03/01 15:44:39;;;;;;;14.65;7.07;;;;;;;9.93;38.21;100180.28;12202461;19;20013;-79
2023/03/01 15:48:49;;;;;;;15.15;7.13;;;;;;;9.81;38.38;100180.25;12178735;19;20014;-81
2023/03/01 15:52:51;;;;;;;11.52;6.72;;;;;;;9.61;38.62;100176.97;12204651;19;20019;-81
2023/03/01 15:56:53;;;;;;;12.77;7.10;;;;;;;9.49;38.84;100186.03;12209382;19;20397;-81
2023/03/01 16:00:58;;;;;;;15.25;7.47;;;;;;;9.34;39.35;100182.88;12183637;19;20042;-81
2023/03/01 16:05:04;;;;;;;14.40;8.05;;;;;;;9.20;39.70;100176.69;12205598;19;20014;-81
2023/03/01 16:09:05;;;;;;;13.95;7.00;;;;;;;8.94;40.90;100177.03;12215951;19;20019;-79
2023/03/01 16:13:07;;;;;;;11.48;6.82;;;;;;;8.90;40.42;100183.00;12246807;19;20012;-81
2023/03/01 16:17:10;;;;;;;15.50;8.00;;;;;;;8.79;40.40;100189.25;12241282;19;20034;-82
2023/03/01 16:21:20;;;;;;;13.30;7.85;;;;;;;8.61;40.99;100181.84;12209618;19;20030;-81
2023/03/01 16:25:22;;;;;;;12.60;7.65;;;;;;;8.45;41.33;100185.19;12179966;19;20461;-82
2023/03/01 16:29:24;;;;;;;13.40;7.57;;;;;;;8.26;41.88;100181.53;12217511;19;20018;-84
2023/03/01 16:33:28;;;;;;;14.88;7.70;;;;;;;8.09;42.01;100191.41;12221076;19;20017;-82
2023/03/01 16:37:35;;;;;;;13.55;7.15;;;;;;;8.06;41.95;100191.84;12202072;19;20007;-82
2023/03/01 16:41:38;;;;;;;16.33;8.05;;;;;;;7.87;42.66;100194.53;12224526;19;20011;-83
2023/03/01 16:45:40;;;;;;;12.63;6.90;;;;;;;7.78;42.59;100193.13;12223359;19;20002;-82
2023/03/01 16:49:42;;;;;;;14.35;8.13;;;;;;;7.64;42.83;100189.63;12222914;19;20488;-84
2023/03/01 16:53:44;;;;;;;14.23;7.70;;;;;;;7.44;43.36;100186.19;12224926;19;20093;-81
2023/03/01 16:57:47;;;;;;;14.88;7.45;;;;;;;7.21;44.32;100189.47;12205145;19;20014;-82
2023/03/01 17:01:49;;;;;;;14.52;7.28;;;;;;;7.03;44.73;100204.72;12225097;19;20027;-82
2023/03/01 17:05:51;;;;;;;37.05;17.25;;;;;;;6.89;44.85;100205.00;12229470;19;20027;-81
2023/03/01 17:09:53;;;;;;;57.53;22.20;;;;;;;6.72;45.83;100202.75;12202702;19;20043;-82
2023/03/01 17:13:55;;;;;;;52.97;24.65;;;;;;;6.60;45.75;100197.09;12223788;19;20011;-83
2023/03/01 17:17:56;;;;;;;25.67;13.73;;;;;;;6.39;46.50;100206.41;12220138;19;19999;-81
2023/03/01 17:21:59;;;;;;;29.83;16.55;;;;;;;6.18;46.44;100208.50;12201216;19;20011;-83
2023/03/01 17:26:02;;;;;;;32.20;16.75;;;;;;;6.01;47.23;100208.06;12224332;19;19998;-82
2023/03/01 17:30:07;;;;;;;54.33;21.95;;;;;;;5.89;48.20;100221.53;12225075;19;20039;-82
2023/03/01 17:34:15;;;;;;;66.35;31.42;;;;;;;5.73;48.54;100211.81;12211874;19;20027;-81
2023/03/01 17:38:17;;;;;;;;;;;;;;;5.66;49.49;100208.25;12265883;19;20008;-82
2023/03/01 17:42:18;;;;;;;28.60;14.48;;;;;;;5.63;49.24;100203.19;12238872;19;19937;-82
2023/03/01 17:46:21;;;;;;;28.67;14.52;;;;;;;5.49;50.14;100211.34;12190877;19;20002;-82
2023/03/01 17:50:23;;;;;;;38.17;15.00;;;;;;;5.47;50.44;100201.69;12208726;19;20011;-83
2023/03/01 17:54:25;;;;;;;34.17;15.73;;;;;;;5.39;49.85;100197.25;12210037;19;20047;-83
2023/03/01 17:58:26;;;;;;;31.73;13.13;;;;;;;5.27;50.72;100204.38;12191391;19;20054;-81
2023/03/01 18:02:31;;;;;;;22.33;10.65;;;;;;;5.20;51.26;100204.34;12208350;19;20002;-81
2023/03/01 18:06:35;;;;;;;31.50;13.73;;;;;;;5.15;51.03;100201.41;12214365;19;20021;-81
2023/03/01 18:10:37;;;;;;;26.10;12.13;;;;;;;5.05;51.77;100189.16;12189898;19;20027;-82
2023/03/01 18:14:39;;;;;;;17.10;9.25;;;;;;;4.89;52.01;100187.63;12205880;19;20006;-82
2023/03/01 18:18:44;;;;;;;18.05;9.68;;;;;;;4.82;51.77;100189.47;12187539;19;20007;-82
2023/03/01 18:22:45;;;;;;;26.05;12.77;;;;;;;4.73;52.62;100203.31;12205009;19;20099;-82
2023/03/01 18:26:48;;;;;;;43.05;17.92;;;;;;;4.74;52.97;100204.16;12210901;19;20006;-81
2023/03/01 18:30:57;;;;;;;25.65;12.05;;;;;;;4.71;52.93;100201.84;12185813;19;20010;-81
2023/03/01 18:34:59;;;;;;;22.27;10.05;;;;;;;4.65;53.41;100203.47;12204353;19;20020;-81
2023/03/01 18:39:02;;;;;;;22.43;10.37;;;;;;;4.64;53.42;100209.13;12206937;19;20034;-82
2023/03/01 18:43:04;;;;;;;21.08;10.75;;;;;;;4.54;54.24;100207.59;12169619;19;20026;-82